sensor_id;sensor_type;location;lat;lon;timestamp;pressure;altitude;pressure_sealevel;temperature;humidity
32452;BME280;45528;52.102;5.242;2023-11-21T00:02:46;100657.0;;;14.67;57.79
32452;BME280;45528;52.102;5.242;2023-11-21T00:04:23;100659.0;;;14.72;57.8
32452;BME280;45528;52.102;5.242;2023-11-21T00:05:59;100661.0;;;14.77;57.64
32452;BME280;45528;52.102;5.242;2023-11-21T00:09:11;100663.0;;;14.72;57.27
32452;BME280;45528;52.102;5.242;2023-11-21T00:10:47;100663.0;;;14.72;57.09
32452;BME280;45528;52.102;5.242;2023-11-21T00:12:23;100669.0;;;14.68;57.28
32452;BME280;45528;52.102;5.242;2023-11-21T00:13:59;100668.0;;;14.69;57.34
32452;BME280;45528;52.102;5.242;2023-11-21T00:17:11;100672.0;;;14.72;57.18
32452;BME280;45528;52.102;5.242;2023-11-21T00:18:47;100673.0;;;14.68;57.3
32452;BME280;45528;52.102;5.242;2023-11-21T00:20:23;100674.0;;;14.67;57.08
32452;BME280;45528;52.102;5.242;2023-11-21T00:23:36;100676.0;;;14.64;57.1
32452;BME280;45528;52.102;5.242;2023-11-21T00:25:12;100671.0;;;14.64;57.31
32452;BME280;45528;52.102;5.242;2023-11-21T00:26:49;100667.0;;;14.63;57.13
32452;BME280;45528;52.102;5.242;2023-11-21T00:30:03;100670.0;;;14.6;57.21
32452;BME280;45528;52.102;5.242;2023-11-21T00:31:39;100680.0;;;14.58;57.17
32452;BME280;45528;52.102;5.242;2023-11-21T00:33:15;100676.0;;;14.59;57.2
32452;BME280;45528;52.102;5.242;2023-11-21T00:36:27;100674.0;;;14.6;57.3
32452;BME280;45528;52.102;5.242;2023-11-21T00:38:03;100670.0;;;14.55;57.44
32452;BME280;45528;52.102;5.242;2023-11-21T00:39:39;100673.0;;;14.57;57.15
32452;BME280;45528;52.102;5.242;2023-11-21T00:41:16;100673.0;;;14.53;57.12
32452;BME280;45528;52.102;5.242;2023-11-21T00:44:28;100676.0;;;14.49;57.18
32452;BME280;45528;52.102;5.242;2023-11-21T00:46:04;100678.0;;;14.46;57.41
32452;BME280;45528;52.102;5.242;2023-11-21T00:47:40;100682.0;;;14.47;57.52
32452;BME280;45528;52.102;5.242;2023-11-21T00:50:52;100680.0;;;14.48;57.5
32452;BME280;45528;52.102;5.242;2023-11-21T00:52:28;100687.0;;;14.49;57.7
32452;BME280;45528;52.102;5.242;2023-11-21T00:54:05;100683.0;;;14.51;57.65
32452;BME280;45528;52.102;5.242;2023-11-21T00:57:17;100685.0;;;14.51;57.44
32452;BME280;45528;52.102;5.242;2023-11-21T00:58:54;100692.0;;;14.48;57.58
32452;BME280;45528;52.102;5.242;2023-11-21T01:00:30;100698.0;;;14.5;57.78
32452;BME280;45528;52.102;5.242;2023-11-21T01:02:06;100705.0;;;14.54;57.95
32452;BME280;45528;52.102;5.242;2023-11-21T01:05:18;100702.0;;;14.54;57.69
32452;BME280;45528;52.102;5.242;2023-11-21T01:06:54;100707.0;;;14.53;57.83
32452;BME280;45528;52.102;5.242;2023-11-21T01:08:30;100702.0;;;14.58;58.08
32452;BME280;45528;52.102;5.242;2023-11-21T01:11:43;100707.0;;;14.63;57.8
32452;BME280;45528;52.102;5.242;2023-11-21T01:13:19;100709.0;;;14.69;57.61
32452;BME280;45528;52.102;5.242;2023-11-21T01:14:55;100713.0;;;14.68;57.51
32452;BME280;45528;52.102;5.242;2023-11-21T01:18:08;100718.0;;;14.64;57.44
32452;BME280;45528;52.102;5.242;2023-11-21T01:19:44;100720.0;;;14.6;57.34
32452;BME280;45528;52.102;5.242;2023-11-21T01:21:20;100715.0;;;14.58;57.47
32452;BME280;45528;52.102;5.242;2023-11-21T01:24:32;100718.0;;;14.61;57.55
32452;BME280;45528;52.102;5.242;2023-11-21T01:26:08;100712.0;;;14.59;57.38
32452;BME280;45528;52.102;5.242;2023-11-21T01:27:44;100714.0;;;14.56;57.31
32452;BME280;45528;52.102;5.242;2023-11-21T01:29:20;100714.0;;;14.56;57.29
32452;BME280;45528;52.102;5.242;2023-11-21T01:32:32;100718.0;;;14.58;57.33
32452;BME280;45528;52.102;5.242;2023-11-21T01:34:08;100712.0;;;14.56;57.42
32452;BME280;45528;52.102;5.242;2023-11-21T01:35:44;100713.0;;;14.55;57.63
32452;BME280;45528;52.102;5.242;2023-11-21T01:38:57;100717.0;;;14.52;57.42
32452;BME280;45528;52.102;5.242;2023-11-21T01:40:33;100721.0;;;14.52;57.64
32452;BME280;45528;52.102;5.242;2023-11-21T01:42:09;100719.0;;;14.54;57.41
32452;BME280;45528;52.102;5.242;2023-11-21T01:45:21;100723.0;;;14.56;57.49
32452;BME280;45528;52.102;5.242;2023-11-21T01:46:57;100721.0;;;14.57;57.62
32452;BME280;45528;52.102;5.242;2023-11-21T01:48:33;100722.0;;;14.59;57.88
32452;BME280;45528;52.102;5.242;2023-11-21T01:51:52;100728.0;;;14.66;57.8
32452;BME280;45528;52.102;5.242;2023-11-21T01:53:28;100732.0;;;14.71;57.69
32452;BME280;45528;52.102;5.242;2023-11-21T01:55:06;100733.0;;;14.72;58.03
32452;BME280;45528;52.102;5.242;2023-11-21T01:56:44;100741.0;;;14.78;57.87
32452;BME280;45528;52.102;5.242;2023-11-21T01:59:58;100743.0;;;14.83;57.75
32452;BME280;45528;52.102;5.242;2023-11-21T02:01:37;100747.0;;;14.84;57.69
32452;BME280;45528;52.102;5.242;2023-11-21T02:03:13;100748.0;;;14.83;57.94
32452;BME280;45528;52.102;5.242;2023-11-21T02:06:25;100756.0;;;14.84;57.75
32452;BME280;45528;52.102;5.242;2023-11-21T02:08:02;100756.0;;;14.86;57.82
32452;BME280;45528;52.102;5.242;2023-11-21T02:09:37;100756.0;;;14.86;57.95
32452;BME280;45528;52.102;5.242;2023-11-21T02:11:13;100761.0;;;14.86;58.12
32452;BME280;45528;52.102;5.242;2023-11-21T02:14:27;100767.0;;;14.91;58.07
32452;BME280;45528;52.102;5.242;2023-11-21T02:16:05;100764.0;;;14.99;57.94
32452;BME280;45528;52.102;5.242;2023-11-21T02:17:41;100766.0;;;15.05;57.83
32452;BME280;45528;52.102;5.242;2023-11-21T02:20:55;100768.0;;;15.1;57.87
32452;BME280;45528;52.102;5.242;2023-11-21T02:22:34;100768.0;;;15.09;58.13
32452;BME280;45528;52.102;5.242;2023-11-21T02:24:15;100769.0;;;15.14;58.2
32452;BME280;45528;52.102;5.242;2023-11-21T02:25:51;100767.0;;;15.13;58.25
32452;BME280;45528;52.102;5.242;2023-11-21T02:29:03;100766.0;;;15.19;58.27
32452;BME280;45528;52.102;5.242;2023-11-21T02:30:40;100768.0;;;15.22;58.16
32452;BME280;45528;52.102;5.242;2023-11-21T02:35:28;100768.0;;;15.2;58.36
32452;BME280;45528;52.102;5.242;2023-11-21T02:37:04;100769.0;;;15.26;58.37
32452;BME280;45528;52.102;5.242;2023-11-21T02:38:40;100775.0;;;15.49;57.75
32452;BME280;45528;52.102;5.242;2023-11-21T02:41:52;100772.0;;;15.4;57.87
32452;BME280;45528;52.102;5.242;2023-11-21T02:43:28;100777.0;;;15.43;57.75
32452;BME280;45528;52.102;5.242;2023-11-21T02:45:06;100776.0;;;15.43;57.85
32452;BME280;45528;52.102;5.242;2023-11-21T02:46:42;100776.0;;;15.42;57.95
32452;BME280;45528;52.102;5.242;2023-11-21T02:49:55;100776.0;;;15.37;58.21
32452;BME280;45528;52.102;5.242;2023-11-21T02:51:31;100778.0;;;15.41;58.34
32452;BME280;45528;52.102;5.242;2023-11-21T02:53:08;100777.0;;;15.46;58.4
32452;BME280;45528;52.102;5.242;2023-11-21T02:56:20;100777.0;;;15.45;58.33
32452;BME280;45528;52.102;5.242;2023-11-21T02:57:56;100780.0;;;15.51;58.29
32452;BME280;45528;52.102;5.242;2023-11-21T02:59:32;100780.0;;;15.48;58.35
32452;BME280;45528;52.102;5.242;2023-11-21T03:02:45;100774.0;;;15.5;58.33
32452;BME280;45528;52.102;5.242;2023-11-21T03:04:20;100775.0;;;15.5;58.39
32452;BME280;45528;52.102;5.242;2023-11-21T03:05:56;100774.0;;;15.52;58.49
32452;BME280;45528;52.102;5.242;2023-11-21T03:09:09;100775.0;;;15.54;58.48
32452;BME280;45528;52.102;5.242;2023-11-21T03:10:45;100776.0;;;15.52;58.54
32452;BME280;45528;52.102;5.242;2023-11-21T03:12:21;100776.0;;;15.57;58.58
32452;BME280;45528;52.102;5.242;2023-11-21T03:13:57;100780.0;;;15.59;58.48
32452;BME280;45528;52.102;5.242;2023-11-21T03:17:09;100780.0;;;15.56;58.55
32452;BME280;45528;52.102;5.242;2023-11-21T03:18:45;100780.0;;;15.63;58.71
32452;BME280;45528;52.102;5.242;2023-11-21T03:20:21;100777.0;;;15.65;58.64
32452;BME280;45528;52.102;5.242;2023-11-21T03:23:34;100776.0;;;15.69;58.53
32452;BME280;45528;52.102;5.242;2023-11-21T03:25:10;100782.0;;;15.7;58.49
32452;BME280;45528;52.102;5.242;2023-11-21T03:26:46;100785.0;;;15.75;58.44
32452;BME280;45528;52.102;5.242;2023-11-21T03:29:58;100783.0;;;15.76;58.5
32452;BME280;45528;52.102;5.242;2023-11-21T03:31:34;100787.0;;;15.78;58.39
32452;BME280;45528;52.102;5.242;2023-11-21T03:33:10;100781.0;;;15.71;58.55
32452;BME280;45528;52.102;5.242;2023-11-21T03:36:31;100786.0;;;15.65;58.71
32452;BME280;45528;52.102;5.242;2023-11-21T03:38:07;100786.0;;;15.69;58.7
32452;BME280;45528;52.102;5.242;2023-11-21T03:39:45;100786.0;;;15.7;58.92
32452;BME280;45528;52.102;5.242;2023-11-21T03:41:21;100787.0;;;15.73;58.84
32452;BME280;45528;52.102;5.242;2023-11-21T03:44:34;100797.0;;;15.77;58.58
32452;BME280;45528;52.102;5.242;2023-11-21T03:46:10;100795.0;;;15.88;58.15
32452;BME280;45528;52.102;5.242;2023-11-21T03:47:46;100797.0;;;15.82;58.16
32452;BME280;45528;52.102;5.242;2023-11-21T03:50:58;100805.0;;;15.78;58.26
32452;BME280;45528;52.102;5.242;2023-11-21T03:52:34;100796.0;;;15.76;58.35
32452;BME280;45528;52.102;5.242;2023-11-21T03:54:10;100796.0;;;15.78;58.39
32452;BME280;45528;52.102;5.242;2023-11-21T03:55:46;100801.0;;;15.83;58.4
32452;BME280;45528;52.102;5.242;2023-11-21T03:58:58;100800.0;;;15.84;58.4
32452;BME280;45528;52.102;5.242;2023-11-21T04:00:35;100806.0;;;15.83;58.43
32452;BME280;45528;52.102;5.242;2023-11-21T04:02:11;100811.0;;;15.87;58.39
32452;BME280;45528;52.102;5.242;2023-11-21T04:05:23;100817.0;;;15.87;58.41
32452;BME280;45528;52.102;5.242;2023-11-21T04:06:59;100815.0;;;15.83;58.48
32452;BME280;45528;52.102;5.242;2023-11-21T04:08:35;100819.0;;;15.85;58.5
32452;BME280;45528;52.102;5.242;2023-11-21T04:11:47;100823.0;;;15.87;58.45
32452;BME280;45528;52.102;5.242;2023-11-21T04:13:23;100827.0;;;15.9;58.51
32452;BME280;45528;52.102;5.242;2023-11-21T04:14:59;100830.0;;;15.87;58.49
32452;BME280;45528;52.102;5.242;2023-11-21T04:18:12;100827.0;;;15.89;58.46
32452;BME280;45528;52.102;5.242;2023-11-21T04:19:48;100830.0;;;15.93;58.41
32452;BME280;45528;52.102;5.242;2023-11-21T04:21:24;100831.0;;;15.92;58.46
32452;BME280;45528;52.102;5.242;2023-11-21T04:23:00;100837.0;;;15.96;58.48
32452;BME280;45528;52.102;5.242;2023-11-21T04:26:12;100839.0;;;15.94;58.51
32452;BME280;45528;52.102;5.242;2023-11-21T04:27:48;100839.0;;;15.96;58.49
32452;BME280;45528;52.102;5.242;2023-11-21T04:29:24;100846.0;;;15.98;58.57
32452;BME280;45528;52.102;5.242;2023-11-21T04:32:37;100847.0;;;16.02;58.47
32452;BME280;45528;52.102;5.242;2023-11-21T04:34:12;100853.0;;;16.04;58.4
32452;BME280;45528;52.102;5.242;2023-11-21T04:35:49;100858.0;;;16.04;58.47
32452;BME280;45528;52.102;5.242;2023-11-21T04:39:01;100859.0;;;16.07;58.47
32452;BME280;45528;52.102;5.242;2023-11-21T04:40:37;100862.0;;;16.06;58.45
32452;BME280;45528;52.102;5.242;2023-11-21T04:42:13;100873.0;;;16.06;58.49
32452;BME280;45528;52.102;5.242;2023-11-21T04:45:25;100868.0;;;16.06;58.56
32452;BME280;45528;52.102;5.242;2023-11-21T04:47:01;100869.0;;;16.09;58.66
32452;BME280;45528;52.102;5.242;2023-11-21T04:48:38;100869.0;;;16.13;58.66
32452;BME280;45528;52.102;5.242;2023-11-21T04:50:14;100863.0;;;16.15;58.64
32452;BME280;45528;52.102;5.242;2023-11-21T04:53:27;100865.0;;;16.15;58.65
32452;BME280;45528;52.102;5.242;2023-11-21T04:55:03;100866.0;;;16.14;58.62
32452;BME280;45528;52.102;5.242;2023-11-21T04:56:40;100876.0;;;16.3;58.34
32452;BME280;45528;52.102;5.242;2023-11-21T04:59:53;100875.0;;;16.38;57.97
32452;BME280;45528;52.102;5.242;2023-11-21T05:01:29;100880.0;;;16.38;57.95
32452;BME280;45528;52.102;5.242;2023-11-21T05:03:06;100877.0;;;16.28;58.29
32452;BME280;45528;52.102;5.242;2023-11-21T05:06:18;100876.0;;;16.25;58.46
32452;BME280;45528;52.102;5.242;2023-11-21T05:07:54;100878.0;;;16.23;58.62
32452;BME280;45528;52.102;5.242;2023-11-21T05:09:31;100881.0;;;16.27;58.65
32452;BME280;45528;52.102;5.242;2023-11-21T05:11:06;100884.0;;;16.3;58.87
32452;BME280;45528;52.102;5.242;2023-11-21T05:14:19;100891.0;;;16.29;58.75
32452;BME280;45528;52.102;5.242;2023-11-21T05:15:55;100891.0;;;16.29;58.79
32452;BME280;45528;52.102;5.242;2023-11-21T05:17:32;100893.0;;;16.29;58.94
32452;BME280;45528;52.102;5.242;2023-11-21T05:20:44;100887.0;;;16.32;58.81
32452;BME280;45528;52.102;5.242;2023-11-21T05:22:20;100890.0;;;16.31;58.86
32452;BME280;45528;52.102;5.242;2023-11-21T05:23:56;100893.0;;;16.32;58.76
32452;BME280;45528;52.102;5.242;2023-11-21T05:27:09;100896.0;;;16.36;58.67
32452;BME280;45528;52.102;5.242;2023-11-21T05:28:46;100900.0;;;16.34;58.7
32452;BME280;45528;52.102;5.242;2023-11-21T05:30:22;100902.0;;;16.32;58.73
32452;BME280;45528;52.102;5.242;2023-11-21T05:33:34;100903.0;;;16.36;58.67
32452;BME280;45528;52.102;5.242;2023-11-21T05:35:10;100905.0;;;16.31;58.87
32452;BME280;45528;52.102;5.242;2023-11-21T05:36:46;100908.0;;;16.36;58.79
32452;BME280;45528;52.102;5.242;2023-11-21T05:38:22;100905.0;;;16.34;58.83
32452;BME280;45528;52.102;5.242;2023-11-21T05:41:34;100905.0;;;16.37;58.82
32452;BME280;45528;52.102;5.242;2023-11-21T05:43:10;100903.0;;;16.39;58.91
32452;BME280;45528;52.102;5.242;2023-11-21T05:44:46;100905.0;;;16.39;59.02
32452;BME280;45528;52.102;5.242;2023-11-21T05:47:58;100922.0;;;16.61;58.52
32452;BME280;45528;52.102;5.242;2023-11-21T05:49:35;100920.0;;;16.75;57.91
32452;BME280;45528;52.102;5.242;2023-11-21T05:51:11;100922.0;;;16.59;58.26
32452;BME280;45528;52.102;5.242;2023-11-21T05:54:23;100930.0;;;16.52;58.54
32452;BME280;45528;52.102;5.242;2023-11-21T05:55:59;100935.0;;;16.59;58.4
32452;BME280;45528;52.102;5.242;2023-11-21T05:57:37;100938.0;;;16.59;58.46
32452;BME280;45528;52.102;5.242;2023-11-21T05:59:14;100937.0;;;16.56;58.52
32452;BME280;45528;52.102;5.242;2023-11-21T06:02:26;100940.0;;;16.54;58.77
32452;BME280;45528;52.102;5.242;2023-11-21T06:04:03;100945.0;;;16.61;58.63
32452;BME280;45528;52.102;5.242;2023-11-21T06:05:38;100943.0;;;16.63;58.58
32452;BME280;45528;52.102;5.242;2023-11-21T06:08:51;100948.0;;;16.54;58.88
32452;BME280;45528;52.102;5.242;2023-11-21T06:10:27;100951.0;;;16.73;58.29
32452;BME280;45528;52.102;5.242;2023-11-21T06:12:03;100956.0;;;16.71;58.6
32452;BME280;45528;52.102;5.242;2023-11-21T06:15:15;100961.0;;;16.71;58.59
32452;BME280;45528;52.102;5.242;2023-11-21T06:16:51;100965.0;;;16.68;58.69
32452;BME280;45528;52.102;5.242;2023-11-21T06:18:27;100967.0;;;16.68;58.88
32452;BME280;45528;52.102;5.242;2023-11-21T06:21:45;100968.0;;;16.7;58.79
32452;BME280;45528;52.102;5.242;2023-11-21T06:23:21;100972.0;;;16.65;58.9
32452;BME280;45528;52.102;5.242;2023-11-21T06:24:57;100970.0;;;16.7;58.84
32452;BME280;45528;52.102;5.242;2023-11-21T06:26:34;100972.0;;;16.79;58.6
32452;BME280;45528;52.102;5.242;2023-11-21T06:29:46;100969.0;;;16.7;58.87
32452;BME280;45528;52.102;5.242;2023-11-21T06:31:22;100969.0;;;16.81;58.65
32452;BME280;45528;52.102;5.242;2023-11-21T06:32:58;100975.0;;;16.79;58.59
32452;BME280;45528;52.102;5.242;2023-11-21T06:36:10;100973.0;;;16.84;58.39
32452;BME280;45528;52.102;5.242;2023-11-21T06:37:46;100976.0;;;16.9;58.43
32452;BME280;45528;52.102;5.242;2023-11-21T06:39:22;100977.0;;;16.84;58.49
32452;BME280;45528;52.102;5.242;2023-11-21T06:42:34;100980.0;;;16.84;58.61
32452;BME280;45528;52.102;5.242;2023-11-21T06:44:11;100982.0;;;16.9;58.58
32452;BME280;45528;52.102;5.242;2023-11-21T06:45:47;100982.0;;;16.82;58.6
32452;BME280;45528;52.102;5.242;2023-11-21T06:47:23;100988.0;;;16.93;58.52
32452;BME280;45528;52.102;5.242;2023-11-21T06:50:35;100987.0;;;16.93;58.63
32452;BME280;45528;52.102;5.242;2023-11-21T06:52:11;100989.0;;;16.88;58.75
32452;BME280;45528;52.102;5.242;2023-11-21T06:53:47;100992.0;;;17.03;58.57
32452;BME280;45528;52.102;5.242;2023-11-21T06:56:59;100992.0;;;17.14;58.56
32452;BME280;45528;52.102;5.242;2023-11-21T06:58:35;100998.0;;;17.13;58.61
32452;BME280;45528;52.102;5.242;2023-11-21T07:00:13;101006.0;;;17.34;58.52
32452;BME280;45528;52.102;5.242;2023-11-21T07:03:27;101005.0;;;17.34;58.47
32452;BME280;45528;52.102;5.242;2023-11-21T07:05:03;101012.0;;;17.31;58.82
32452;BME280;45528;52.102;5.242;2023-11-21T07:06:40;101017.0;;;17.46;58.66
32452;BME280;45528;52.102;5.242;2023-11-21T07:08:16;101021.0;;;17.38;58.96
32452;BME280;45528;52.102;5.242;2023-11-21T07:11:28;101021.0;;;17.34;59.27
32452;BME280;45528;52.102;5.242;2023-11-21T07:13:04;101020.0;;;17.39;59.22
32452;BME280;45528;52.102;5.242;2023-11-21T07:14:40;101028.0;;;17.43;59.16
32452;BME280;45528;52.102;5.242;2023-11-21T07:17:52;101030.0;;;17.45;59.29
32452;BME280;45528;52.102;5.242;2023-11-21T07:19:28;101034.0;;;17.53;59.23
32452;BME280;45528;52.102;5.242;2023-11-21T07:21:05;101036.0;;;17.54;59.27
32452;BME280;45528;52.102;5.242;2023-11-21T07:24:17;101039.0;;;17.66;58.96
32452;BME280;45528;52.102;5.242;2023-11-21T07:25:53;101035.0;;;17.64;59.1
32452;BME280;45528;52.102;5.242;2023-11-21T07:27:29;101037.0;;;17.61;59.34
32452;BME280;45528;52.102;5.242;2023-11-21T07:30:42;101037.0;;;17.68;59.21
32452;BME280;45528;52.102;5.242;2023-11-21T07:32:18;101038.0;;;17.66;59.15
32452;BME280;45528;52.102;5.242;2023-11-21T07:33:55;101042.0;;;17.73;58.99
32452;BME280;45528;52.102;5.242;2023-11-21T07:35:31;101041.0;;;17.73;58.88
32452;BME280;45528;52.102;5.242;2023-11-21T07:38:44;101047.0;;;17.66;59.03
32452;BME280;45528;52.102;5.242;2023-11-21T07:40:20;101050.0;;;17.72;59.06
32452;BME280;45528;52.102;5.242;2023-11-21T07:41:56;101048.0;;;17.68;59.12
32452;BME280;45528;52.102;5.242;2023-11-21T07:45:08;101052.0;;;17.7;59.13
32452;BME280;45528;52.102;5.242;2023-11-21T07:46:44;101058.0;;;17.73;59.27
32452;BME280;45528;52.102;5.242;2023-11-21T07:48:20;101061.0;;;17.77;58.94
32452;BME280;45528;52.102;5.242;2023-11-21T07:51:32;101070.0;;;17.82;58.91
32452;BME280;45528;52.102;5.242;2023-11-21T07:53:08;101073.0;;;17.88;58.89
32452;BME280;45528;52.102;5.242;2023-11-21T07:54:44;101070.0;;;17.86;58.99
32452;BME280;45528;52.102;5.242;2023-11-21T07:57:57;101069.0;;;17.87;59.28
32452;BME280;45528;52.102;5.242;2023-11-21T07:59:33;101076.0;;;17.93;59.14
32452;BME280;45528;52.102;5.242;2023-11-21T08:01:09;101080.0;;;17.87;59.2
32452;BME280;45528;52.102;5.242;2023-11-21T08:02:45;101082.0;;;17.93;59.24
32452;BME280;45528;52.102;5.242;2023-11-21T08:05:57;101089.0;;;17.97;59.15
32452;BME280;45528;52.102;5.242;2023-11-21T08:07:34;101093.0;;;18.02;59.31
32452;BME280;45528;52.102;5.242;2023-11-21T08:09:10;101096.0;;;18.13;59.13
32452;BME280;45528;52.102;5.242;2023-11-21T08:12:22;101099.0;;;18.02;59.28
32452;BME280;45528;52.102;5.242;2023-11-21T08:13:59;101098.0;;;18.0;59.47
32452;BME280;45528;52.102;5.242;2023-11-21T08:15:34;101106.0;;;18.03;59.59
32452;BME280;45528;52.102;5.242;2023-11-21T08:18:47;101110.0;;;18.09;59.21
32452;BME280;45528;52.102;5.242;2023-11-21T08:20:23;101118.0;;;18.14;59.3
32452;BME280;45528;52.102;5.242;2023-11-21T08:21:59;101123.0;;;18.21;59.1
32452;BME280;45528;52.102;5.242;2023-11-21T08:23:35;101128.0;;;18.18;59.35
32452;BME280;45528;52.102;5.242;2023-11-21T08:26:47;101131.0;;;18.2;59.18
32452;BME280;45528;52.102;5.242;2023-11-21T08:28:23;101141.0;;;18.27;59.33
32452;BME280;45528;52.102;5.242;2023-11-21T08:30:00;101141.0;;;18.28;59.09
32452;BME280;45528;52.102;5.242;2023-11-21T08:33:12;101150.0;;;18.29;59.18
32452;BME280;45528;52.102;5.242;2023-11-21T08:34:48;101155.0;;;18.34;59.22
32452;BME280;45528;52.102;5.242;2023-11-21T08:36:25;101161.0;;;18.36;59.23
32452;BME280;45528;52.102;5.242;2023-11-21T08:39:38;101159.0;;;18.36;59.23
32452;BME280;45528;52.102;5.242;2023-11-21T08:41:14;101162.0;;;18.37;59.28
32452;BME280;45528;52.102;5.242;2023-11-21T08:42:50;101169.0;;;18.37;59.59
32452;BME280;45528;52.102;5.242;2023-11-21T08:46:03;101165.0;;;18.5;59.07
32452;BME280;45528;52.102;5.242;2023-11-21T08:47:39;101169.0;;;18.5;58.81
32452;BME280;45528;52.102;5.242;2023-11-21T08:49:15;101160.0;;;18.41;59.04
32452;BME280;45528;52.102;5.242;2023-11-21T08:50:51;101159.0;;;18.48;59.14
32452;BME280;45528;52.102;5.242;2023-11-21T08:54:03;101156.0;;;18.39;59.2
32452;BME280;45528;52.102;5.242;2023-11-21T08:55:39;101160.0;;;18.52;59.32
32452;BME280;45528;52.102;5.242;2023-11-21T08:57:15;101171.0;;;18.28;60.09
32452;BME280;45528;52.102;5.242;2023-11-21T09:00:27;101173.0;;;18.54;59.73
32452;BME280;45528;52.102;5.242;2023-11-21T09:02:04;101185.0;;;18.66;59.78
32452;BME280;45528;52.102;5.242;2023-11-21T09:03:39;101186.0;;;18.77;59.59
32452;BME280;45528;52.102;5.242;2023-11-21T09:06:52;101185.0;;;18.77;59.46
32452;BME280;45528;52.102;5.242;2023-11-21T09:08:28;101193.0;;;18.82;59.41
32452;BME280;45528;52.102;5.242;2023-11-21T09:10:05;101197.0;;;18.84;59.49
32452;BME280;45528;52.102;5.242;2023-11-21T09:11:41;101201.0;;;18.95;59.31
32452;BME280;45528;52.102;5.242;2023-11-21T09:14:53;101205.0;;;19.02;59.15
32452;BME280;45528;52.102;5.242;2023-11-21T09:16:29;101209.0;;;18.97;59.42
32452;BME280;45528;52.102;5.242;2023-11-21T09:18:05;101211.0;;;18.86;59.71
32452;BME280;45528;52.102;5.242;2023-11-21T09:21:17;101215.0;;;18.91;59.37
32452;BME280;45528;52.102;5.242;2023-11-21T09:22:53;101212.0;;;18.95;59.0
32452;BME280;45528;52.102;5.242;2023-11-21T09:24:29;101217.0;;;18.96;58.82
32452;BME280;45528;52.102;5.242;2023-11-21T09:27:42;101214.0;;;18.96;59.2
32452;BME280;45528;52.102;5.242;2023-11-21T09:29:18;101223.0;;;18.86;59.23
32452;BME280;45528;52.102;5.242;2023-11-21T09:30:54;101235.0;;;18.98;58.87
32452;BME280;45528;52.102;5.242;2023-11-21T09:34:06;101236.0;;;18.95;58.98
32452;BME280;45528;52.102;5.242;2023-11-21T09:35:42;101243.0;;;18.75;59.55
32452;BME280;45528;52.102;5.242;2023-11-21T09:37:18;101245.0;;;18.93;59.16
32452;BME280;45528;52.102;5.242;2023-11-21T09:38:54;101242.0;;;18.91;59.12
32452;BME280;45528;52.102;5.242;2023-11-21T09:42:10;101249.0;;;18.79;59.29
32452;BME280;45528;52.102;5.242;2023-11-21T09:43:47;101258.0;;;18.93;58.87
32452;BME280;45528;52.102;5.242;2023-11-21T09:45:29;101257.0;;;18.91;58.79
32452;BME280;45528;52.102;5.242;2023-11-21T09:48:51;101261.0;;;18.86;58.49
32452;BME280;45528;52.102;5.242;2023-11-21T09:50:27;101264.0;;;18.68;58.77
32452;BME280;45528;52.102;5.242;2023-11-21T09:52:04;101267.0;;;18.78;58.92
32452;BME280;45528;52.102;5.242;2023-11-21T09:53:45;101274.0;;;18.75;58.76
32452;BME280;45528;52.102;5.242;2023-11-21T09:57:03;101269.0;;;18.81;58.59
32452;BME280;45528;52.102;5.242;2023-11-21T09:58:40;101276.0;;;18.86;58.59
32452;BME280;45528;52.102;5.242;2023-11-21T10:00:18;101285.0;;;18.75;58.72
32452;BME280;45528;52.102;5.242;2023-11-21T10:01:56;101283.0;;;18.75;58.66
32452;BME280;45528;52.102;5.242;2023-11-21T10:05:11;101282.0;;;18.41;59.75
32452;BME280;45528;52.102;5.242;2023-11-21T10:06:47;101285.0;;;18.59;59.41
32452;BME280;45528;52.102;5.242;2023-11-21T10:08:24;101283.0;;;18.68;58.83
32452;BME280;45528;52.102;5.242;2023-11-21T10:11:40;101285.0;;;18.77;58.63
32452;BME280;45528;52.102;5.242;2023-11-21T10:13:17;101283.0;;;18.66;58.75
32452;BME280;45528;52.102;5.242;2023-11-21T10:14:54;101291.0;;;18.7;58.87
32452;BME280;45528;52.102;5.242;2023-11-21T10:16:34;101297.0;;;18.53;59.1
32452;BME280;45528;52.102;5.242;2023-11-21T10:19:47;101302.0;;;18.62;59.32
32452;BME280;45528;52.102;5.242;2023-11-21T10:21:24;101309.0;;;18.64;59.03
32452;BME280;45528;52.102;5.242;2023-11-21T10:26:13;101322.0;;;18.75;58.99
32452;BME280;45528;52.102;5.242;2023-11-21T10:27:49;101326.0;;;18.7;58.6
32452;BME280;45528;52.102;5.242;2023-11-21T10:29:28;101327.0;;;18.72;58.35
32452;BME280;45528;52.102;5.242;2023-11-21T10:32:42;101333.0;;;18.7;58.29
32452;BME280;45528;52.102;5.242;2023-11-21T10:34:19;101336.0;;;18.7;58.25
32452;BME280;45528;52.102;5.242;2023-11-21T10:35:57;101336.0;;;18.73;58.42
32452;BME280;45528;52.102;5.242;2023-11-21T10:37:33;101343.0;;;18.66;58.68
32452;BME280;45528;52.102;5.242;2023-11-21T10:40:50;101352.0;;;18.71;58.28
32452;BME280;45528;52.102;5.242;2023-11-21T10:42:27;101355.0;;;18.66;58.58
32452;BME280;45528;52.102;5.242;2023-11-21T10:44:03;101351.0;;;18.5;58.58
32452;BME280;45528;52.102;5.242;2023-11-21T10:47:16;101363.0;;;18.41;59.04
32452;BME280;45528;52.102;5.242;2023-11-21T10:48:53;101361.0;;;18.64;58.03
32452;BME280;45528;52.102;5.242;2023-11-21T10:53:41;101371.0;;;18.43;58.42
32452;BME280;45528;52.102;5.242;2023-11-21T10:55:17;101380.0;;;18.45;58.43
32452;BME280;45528;52.102;5.242;2023-11-21T10:56:57;101389.0;;;18.03;59.22
32452;BME280;45528;52.102;5.242;2023-11-21T10:58:34;101382.0;;;18.27;58.75
32452;BME280;45528;52.102;5.242;2023-11-21T11:01:51;101385.0;;;18.48;58.48
32452;BME280;45528;52.102;5.242;2023-11-21T11:03:28;101391.0;;;18.11;59.14
32452;BME280;45528;52.102;5.242;2023-11-21T11:05:05;101384.0;;;18.18;59.14
32452;BME280;45528;52.102;5.242;2023-11-21T11:08:19;101382.0;;;18.21;59.0
32452;BME280;45528;52.102;5.242;2023-11-21T11:09:58;101389.0;;;18.41;58.59
32452;BME280;45528;52.102;5.242;2023-11-21T11:11:34;101394.0;;;18.41;58.39
32452;BME280;45528;52.102;5.242;2023-11-21T11:13:11;101386.0;;;18.46;58.43